Aviation Digital Data Service (ADDS)

Output produced by METARs form (0556 UTC 29 May 2017)
found at http://www.aviationweather.gov/adds/metars/
 
KYIP 290521Z 2906/3006 24008KT P6SM SCT080 
     FM291600 22015G24KT P6SM BKN060 
     FM300000 24010KT P6SM SCT070
       
KYKM 290520Z 2906/3006 27008KT P6SM SKC 
     FM291800 15005KT P6SM FEW090
       
KYNG 290528Z 2906/3006 20005KT P6SM OVC100 
     TEMPO 2906/2907 6SM -TSRA OVC035CB 
     FM290700 24006KT P6SM OVC060 
     FM291200 25008KT P6SM SCT150 
     FM292200 25008KT P6SM VCTS SCT035CB BKN120 
     FM300200 22006KT P6SM SCT120